Time;durP1;ratioP1;P1;durP2;ratioP2;P2;SDS_P1;SDS_P2;PMS_P1;PMS_P2;Temp;Humidity;BMP_temperature;BMP_pressure;BME280_temperature;BME280_humidity;BME280_pressure;Samples;Min_cycle;Max_cycle;Signal;HPM_P1;HPM_P2
2023/07/01 00:00:36;;;;;;;8.40;3.27;;;17.70;99.90;;;;;;5014377;28;20053;-77
2023/07/01 00:03:03;;;;;;;6.23;2.30;;;17.70;99.90;;;;;;5014763;28;20049;-78
2023/07/01 00:05:29;;;;;;;6.60;2.53;;;17.70;99.90;;;;;;5030736;28;20045;-78
2023/07/01 00:07:56;;;;;;;6.80;2.50;;;17.70;99.90;;;;;;5034531;28;20049;-78
2023/07/01 00:10:21;;;;;;;10.77;2.67;;;17.70;99.90;;;;;;5018782;28;20080;-78
2023/07/01 00:12:47;;;;;;;6.63;3.13;;;17.70;99.90;;;;;;5035802;28;20054;-78
2023/07/01 00:15:13;;;;;;;10.93;3.10;;;17.70;99.90;;;;;;5018307;28;20516;-78
2023/07/01 00:17:39;;;;;;;8.53;2.63;;;17.60;99.90;;;;;;5034787;28;20186;-79
2023/07/01 00:20:05;;;;;;;12.40;2.83;;;17.60;99.90;;;;;;4986569;28;20076;-78
2023/07/01 00:22:31;;;;;;;9.37;3.10;;;17.60;99.90;;;;;;5018805;28;20054;-77
2023/07/01 00:24:57;;;;;;;9.20;3.60;;;17.60;99.90;;;;;;5017896;28;20060;-77
2023/07/01 00:27:22;;;;;;;9.30;3.03;;;17.50;99.90;;;;;;5018277;28;20049;-78
2023/07/01 00:29:48;;;;;;;9.07;3.07;;;17.50;99.90;;;;;;5017466;28;20176;-78
2023/07/01 00:32:14;;;;;;;8.70;2.67;;;17.50;99.90;;;;;;5034530;28;20093;-78
2023/07/01 00:34:39;;;;;;;7.60;2.90;;;17.50;99.90;;;;;;5033787;28;20140;-78
2023/07/01 00:37:06;;;;;;;8.30;2.77;;;17.50;99.90;;;;;;5018498;28;20163;-78
2023/07/01 00:39:32;;;;;;;8.80;3.13;;;17.50;99.90;;;;;;5001757;28;20057;-78
2023/07/01 00:41:57;;;;;;;8.37;2.60;;;17.50;99.90;;;;;;5017170;28;20049;-78
2023/07/01 00:44:23;;;;;;;8.77;2.73;;;17.50;99.90;;;;;;5034223;28;20136;-78
2023/07/01 00:46:49;;;;;;;10.20;3.17;;;17.50;99.90;;;;;;5017002;28;20050;-78
2023/07/01 00:49:15;;;;;;;7.90;3.33;;;17.50;99.90;;;;;;5001984;28;20116;-78
2023/07/01 00:51:47;;;;;;;9.80;2.80;;;17.50;99.90;;;;;;5034201;28;20507;-79
2023/07/01 00:54:18;;;;;;;9.67;2.90;;;17.40;99.90;;;;;;5019006;28;20559;-79
2023/07/01 00:56:44;;;;;;;8.30;2.90;;;17.40;99.90;;;;;;5017525;28;20090;-79
2023/07/01 00:59:09;;;;;;;7.23;3.13;;;17.40;99.90;;;;;;5017990;28;20089;-78
2023/07/01 01:01:39;;;;;;;10.20;3.00;;;17.30;99.90;;;;;;5001266;28;20045;-79
2023/07/01 01:04:33;;;;;;;7.73;3.17;;;17.30;99.90;;;;;;5017480;28;20061;-79
2023/07/01 01:07:07;;;;;;;7.57;2.57;;;17.20;99.90;;;;;;5017354;28;20192;-79
2023/07/01 01:10:17;;;;;;;10.60;3.80;;;17.10;99.90;;;;;;5016669;28;20124;-79
2023/07/01 01:12:47;;;;;;;8.50;2.57;;;17.10;99.90;;;;;;4954082;29;20496;-79
2023/07/01 01:15:13;;;;;;;7.40;3.60;;;17.10;99.90;;;;;;4907432;29;20059;-79
2023/07/01 01:17:41;;;;;;;8.00;3.30;;;17.00;99.90;;;;;;4996942;28;20049;-78
2023/07/01 01:20:13;;;;;;;9.33;3.47;;;17.00;99.90;;;;;;5034838;28;20508;-79
2023/07/01 01:22:46;;;;;;;8.50;2.97;;;17.00;99.90;;;;;;5033747;28;20060;-78
2023/07/01 01:25:23;;;;;;;9.23;3.00;;;17.00;99.90;;;;;;5017290;28;20042;-77
2023/07/01 01:27:53;;;;;;;8.77;3.47;;;17.00;99.90;;;;;;5034584;28;20436;-77
2023/07/01 01:30:23;;;;;;;6.30;3.30;;;17.00;99.90;;;;;;5001467;28;20093;-77
2023/07/01 01:32:49;;;;;;;8.33;2.80;;;17.00;99.90;;;;;;5034227;28;20050;-77
2023/07/01 01:35:14;;;;;;;9.27;3.03;;;16.90;99.90;;;;;;5017264;28;20057;-77
2023/07/01 01:37:50;;;;;;;9.47;3.70;;;17.00;99.90;;;;;;4984434;28;20056;-78
2023/07/01 01:40:25;;;;;;;6.30;2.80;;;16.90;99.90;;;;;;5017016;28;20049;-77
2023/07/01 01:42:55;;;;;;;7.87;3.00;;;16.90;99.90;;;;;;5033275;28;20052;-78
2023/07/01 01:45:21;;;;;;;7.20;2.90;;;17.00;99.90;;;;;;5032794;28;20103;-78
2023/07/01 01:47:49;;;;;;;7.73;3.33;;;16.90;99.90;;;;;;5034208;28;20052;-77
2023/07/01 01:50:17;;;;;;;7.07;3.60;;;17.00;99.90;;;;;;5000774;28;20049;-78
2023/07/01 01:52:43;;;;;;;8.20;3.10;;;17.00;99.90;;;;;;5034339;28;20065;-77
2023/07/01 01:55:12;;;;;;;7.30;3.10;;;17.00;99.90;;;;;;5032748;28;20061;-78
2023/07/01 01:57:39;;;;;;;8.57;3.60;;;17.00;99.90;;;;;;5016606;28;20072;-78
2023/07/01 02:00:08;;;;;;;8.73;3.20;;;17.00;99.90;;;;;;5016112;28;20159;-79
2023/07/01 02:02:36;;;;;;;8.53;3.20;;;16.90;99.90;;;;;;5033775;28;20053;-78
2023/07/01 02:05:01;;;;;;;8.17;2.80;;;17.00;99.90;;;;;;5032615;28;20046;-78
2023/07/01 02:07:27;;;;;;;10.40;3.73;;;17.00;99.90;;;;;;5032671;28;20107;-77
2023/07/01 02:09:53;;;;;;;7.83;2.87;;;17.00;99.90;;;;;;5032367;28;20046;-77
2023/07/01 02:12:19;;;;;;;7.17;3.70;;;17.00;99.90;;;;;;5015725;28;20056;-76
2023/07/01 02:14:44;;;;;;;9.10;2.87;;;17.10;99.90;;;;;;5016356;28;20059;-76
2023/07/01 02:17:10;;;;;;;5.70;3.30;;;17.10;99.90;;;;;;5032293;28;20517;-77
2023/07/01 02:19:36;;;;;;;8.73;3.30;;;17.00;99.90;;;;;;5016090;28;20056;-77
2023/07/01 02:22:01;;;;;;;9.00;3.40;;;17.00;99.90;;;;;;5015738;28;20073;-77
2023/07/01 02:24:27;;;;;;;5.53;2.93;;;17.00;99.90;;;;;;5032105;28;20430;-76
2023/07/01 02:26:53;;;;;;;8.33;4.20;;;17.00;99.90;;;;;;4983025;28;20108;-77
2023/07/01 02:29:19;;;;;;;8.80;3.40;;;17.00;99.90;;;;;;4999846;28;20163;-77
2023/07/01 02:31:45;;;;;;;5.37;2.97;;;17.00;99.90;;;;;;5032599;28;20041;-77
2023/07/01 02:34:10;;;;;;;7.73;3.30;;;17.00;99.90;;;;;;5033078;28;20045;-77
2023/07/01 02:36:40;;;;;;;9.90;4.03;;;17.00;99.90;;;;;;5033540;28;20084;-77
2023/07/01 02:39:06;;;;;;;5.60;3.07;;;17.00;99.90;;;;;;5032130;28;20151;-77
2023/07/01 02:41:32;;;;;;;8.87;3.90;;;17.10;99.90;;;;;;5015694;28;20132;-77
2023/07/01 02:43:57;;;;;;;9.20;4.03;;;17.00;99.90;;;;;;5015806;28;20053;-77
2023/07/01 02:46:23;;;;;;;9.40;3.93;;;17.00;99.90;;;;;;5015753;28;20496;-77
2023/07/01 02:48:49;;;;;;;8.20;3.87;;;17.00;99.90;;;;;;5033214;28;20091;-77
2023/07/01 02:51:16;;;;;;;7.70;4.37;;;17.00;99.90;;;;;;5032923;28;20052;-76
2023/07/01 02:53:42;;;;;;;8.50;3.90;;;16.90;99.90;;;;;;5032404;28;20057;-76
2023/07/01 02:56:08;;;;;;;8.40;4.60;;;16.80;99.90;;;;;;5031824;28;20398;-76
2023/07/01 02:58:33;;;;;;;8.60;4.03;;;16.80;99.90;;;;;;5032115;28;20049;-76
2023/07/01 03:00:59;;;;;;;10.47;5.23;;;16.80;99.90;;;;;;5031664;28;20049;-76
2023/07/01 03:03:26;;;;;;;7.50;5.10;;;16.80;99.90;;;;;;5032312;28;20057;-76
2023/07/01 03:05:52;;;;;;;9.43;5.33;;;16.80;99.90;;;;;;5031826;28;20102;-76
2023/07/01 03:08:17;;;;;;;9.27;5.00;;;16.70;99.90;;;;;;5031576;28;20049;-76
2023/07/01 03:10:43;;;;;;;10.27;5.30;;;16.60;99.90;;;;;;5031878;28;20481;-76
2023/07/01 03:13:09;;;;;;;10.93;5.43;;;16.70;99.90;;;;;;5032139;28;20049;-77
2023/07/01 03:15:35;;;;;;;9.27;5.77;;;16.60;99.90;;;;;;5015271;28;20509;-76
2023/07/01 03:18:00;;;;;;;8.67;5.93;;;16.60;99.90;;;;;;5015068;28;20045;-76
2023/07/01 03:20:26;;;;;;;11.47;6.20;;;16.60;99.90;;;;;;5015611;28;20056;-77
2023/07/01 03:22:54;;;;;;;7.93;6.27;;;16.50;99.90;;;;;;5015209;28;20461;-78
2023/07/01 03:25:20;;;;;;;11.30;7.53;;;16.50;99.90;;;;;;5015269;28;20041;-79
2023/07/01 03:27:46;;;;;;;9.40;6.87;;;16.50;99.90;;;;;;5015512;28;20115;-78
2023/07/01 03:30:14;;;;;;;10.20;6.97;;;16.50;99.90;;;;;;5031620;28;20064;-80
2023/07/01 03:32:40;;;;;;;11.80;7.67;;;16.40;99.90;;;;;;5015378;28;20060;-80
2023/07/01 03:35:07;;;;;;;11.47;7.60;;;16.40;99.90;;;;;;5014586;28;20107;-80
2023/07/01 03:37:33;;;;;;;10.13;7.67;;;16.40;99.90;;;;;;5015293;28;20057;-79
2023/07/01 03:39:58;;;;;;;11.63;7.50;;;16.40;99.90;;;;;;5031309;28;20106;-79
2023/07/01 03:42:24;;;;;;;12.60;7.70;;;16.30;99.90;;;;;;5014739;28;20493;-78
2023/07/01 03:44:50;;;;;;;10.83;7.23;;;16.30;99.90;;;;;;5032818;28;20482;-77
2023/07/01 03:47:15;;;;;;;11.67;7.53;;;16.30;99.90;;;;;;5031273;28;20109;-78
2023/07/01 03:49:41;;;;;;;11.87;8.00;;;16.30;99.90;;;;;;5032663;28;20474;-77
2023/07/01 03:52:08;;;;;;;12.67;7.67;;;16.30;99.90;;;;;;5014932;28;20107;-79
2023/07/01 03:54:34;;;;;;;11.87;8.00;;;16.30;99.90;;;;;;4998848;28;20049;-79
2023/07/01 03:57:01;;;;;;;11.53;8.07;;;16.30;99.90;;;;;;5030770;28;20128;-80
2023/07/01 03:59:28;;;;;;;11.90;7.87;;;16.30;99.90;;;;;;5031397;28;20055;-80
2023/07/01 04:01:54;;;;;;;10.63;7.07;;;16.30;99.90;;;;;;5015101;28;20041;-79
2023/07/01 04:04:25;;;;;;;13.93;8.00;;;16.20;99.90;;;;;;5031087;28;20504;-79
2023/07/01 04:06:52;;;;;;;11.93;7.20;;;16.30;99.90;;;;;;5014802;28;20120;-79
2023/07/01 04:09:18;;;;;;;9.93;7.43;;;16.30;99.90;;;;;;5030827;28;20060;-78
2023/07/01 04:11:44;;;;;;;13.53;7.17;;;16.30;99.90;;;;;;5032263;28;20115;-78
2023/07/01 04:14:10;;;;;;;12.13;7.57;;;16.20;99.90;;;;;;5031055;28;20061;-78
2023/07/01 04:16:36;;;;;;;11.73;7.13;;;16.30;99.90;;;;;;5031511;28;20049;-77
2023/07/01 04:19:02;;;;;;;13.40;7.30;;;16.30;99.90;;;;;;5014338;28;20057;-79
2023/07/01 04:21:27;;;;;;;13.03;7.20;;;16.20;99.90;;;;;;5031939;28;20048;-77
2023/07/01 04:23:53;;;;;;;12.00;7.43;;;16.20;99.90;;;;;;5014675;28;20092;-78
2023/07/01 04:26:19;;;;;;;11.30;7.47;;;16.20;99.90;;;;;;5030922;28;20046;-78
2023/07/01 04:28:45;;;;;;;10.20;7.27;;;16.20;99.90;;;;;;5032340;28;20050;-77
2023/07/01 04:31:11;;;;;;;9.37;6.53;;;16.20;99.90;;;;;;5014270;28;20049;-77
2023/07/01 04:33:37;;;;;;;8.80;7.17;;;16.20;99.90;;;;;;5032307;28;20084;-78
2023/07/01 04:36:02;;;;;;;12.00;7.37;;;16.20;99.90;;;;;;5032138;28;20049;-77
2023/07/01 04:38:28;;;;;;;9.90;7.20;;;16.20;99.90;;;;;;4998047;28;20045;-77
2023/07/01 04:40:54;;;;;;;10.50;7.23;;;16.20;99.90;;;;;;5031240;28;20050;-77
2023/07/01 04:43:21;;;;;;;11.30;7.03;;;16.20;99.90;;;;;;5014154;28;20050;-77
2023/07/01 04:45:47;;;;;;;13.47;7.63;;;16.20;99.90;;;;;;5014430;28;20061;-77
2023/07/01 04:48:12;;;;;;;10.10;7.30;;;16.20;99.90;;;;;;4997965;28;20057;-77
2023/07/01 04:50:44;;;;;;;11.20;7.77;;;16.20;99.90;;;;;;5014349;28;20057;-74
2023/07/01 04:53:10;;;;;;;10.63;7.33;;;16.20;99.90;;;;;;5000424;28;20199;-77
2023/07/01 04:55:36;;;;;;;9.80;7.83;;;16.20;99.90;;;;;;5035653;28;20125;-76
2023/07/01 04:58:01;;;;;;;12.83;8.00;;;16.20;99.90;;;;;;5001775;28;20061;-76
2023/07/01 05:00:27;;;;;;;13.03;7.90;;;16.20;99.90;;;;;;5001326;28;20438;-76
2023/07/01 05:02:53;;;;;;;8.40;6.80;;;16.20;99.90;;;;;;5034139;28;20061;-76
2023/07/01 05:05:19;;;;;;;13.87;7.87;;;16.20;99.90;;;;;;5017491;28;20055;-75
2023/07/01 05:07:45;;;;;;;17.40;12.63;;;16.20;99.90;;;;;;5017862;28;20132;-75
2023/07/01 05:10:10;;;;;;;10.67;7.63;;;16.30;99.90;;;;;;5001462;28;20446;-75
2023/07/01 05:12:36;;;;;;;13.47;7.83;;;16.30;99.90;;;;;;5035267;28;20057;-75
2023/07/01 05:15:02;;;;;;;11.93;7.67;;;16.30;99.90;;;;;;5017613;28;20132;-75
2023/07/01 05:17:28;;;;;;;11.70;8.73;;;16.20;99.90;;;;;;5033925;28;20083;-76
2023/07/01 05:19:53;;;;;;;12.57;8.23;;;16.30;99.90;;;;;;5034085;28;20046;-76
2023/07/01 05:22:19;;;;;;;11.27;8.13;;;16.30;99.90;;;;;;5016849;28;20049;-76
2023/07/01 05:24:45;;;;;;;10.40;8.27;;;16.30;99.90;;;;;;5017606;28;20045;-76
2023/07/01 05:27:10;;;;;;;12.00;7.73;;;16.30;99.90;;;;;;5033603;28;20041;-77
2023/07/01 05:29:36;;;;;;;11.03;7.83;;;16.30;99.90;;;;;;5035123;28;20041;-76
2023/07/01 05:32:03;;;;;;;12.03;8.00;;;16.30;99.90;;;;;;5034915;28;20504;-77
2023/07/01 05:34:30;;;;;;;9.83;7.60;;;16.30;99.90;;;;;;5033242;28;20049;-76
2023/07/01 05:36:56;;;;;;;10.43;7.97;;;16.40;99.90;;;;;;5033626;28;20489;-76
2023/07/01 05:39:21;;;;;;;10.77;7.70;;;16.40;99.90;;;;;;5017150;28;20053;-76
2023/07/01 05:41:47;;;;;;;9.90;8.10;;;16.40;99.90;;;;;;5017432;28;20524;-77
2023/07/01 05:44:13;;;;;;;9.57;8.40;;;16.40;99.90;;;;;;5033307;28;20053;-76
2023/07/01 05:46:40;;;;;;;9.77;8.77;;;16.40;99.90;;;;;;5033379;28;20042;-75
2023/07/01 05:49:06;;;;;;;10.03;8.17;;;16.40;99.90;;;;;;5033395;28;20053;-75
2023/07/01 05:51:33;;;;;;;10.33;7.57;;;16.40;99.90;;;;;;5032947;28;20100;-75
2023/07/01 05:53:59;;;;;;;10.10;9.03;;;16.50;99.90;;;;;;5034481;28;20437;-75
2023/07/01 05:56:24;;;;;;;12.57;9.10;;;16.50;99.90;;;;;;5032827;28;20091;-75
2023/07/01 05:58:50;;;;;;;10.87;8.50;;;16.50;99.90;;;;;;5033217;28;20049;-78
2023/07/01 06:01:16;;;;;;;10.57;8.43;;;16.50;99.90;;;;;;5016426;28;20058;-77
2023/07/01 06:03:42;;;;;;;11.67;8.43;;;16.50;99.90;;;;;;5016317;28;20060;-77
2023/07/01 06:06:08;;;;;;;9.60;8.60;;;16.50;99.90;;;;;;5016044;28;20579;-75
2023/07/01 06:08:33;;;;;;;11.00;8.77;;;16.50;99.90;;;;;;5032599;28;20132;-74
2023/07/01 06:10:59;;;;;;;12.07;7.57;;;16.60;99.90;;;;;;5034128;28;20512;-77
2023/07/01 06:13:25;;;;;;;10.97;8.00;;;16.60;99.90;;;;;;5032143;28;20054;-76
2023/07/01 06:15:51;;;;;;;9.37;7.87;;;16.60;99.90;;;;;;5031678;28;20126;-76
2023/07/01 06:18:16;;;;;;;9.23;7.67;;;16.60;99.90;;;;;;5032532;28;20502;-76
2023/07/01 06:20:43;;;;;;;10.47;8.17;;;16.60;99.90;;;;;;5015108;28;20123;-77
2023/07/01 06:23:08;;;;;;;9.57;8.23;;;16.70;99.90;;;;;;5033473;28;20091;-74
2023/07/01 06:25:34;;;;;;;8.20;7.30;;;16.70;99.90;;;;;;5015411;28;20053;-74
2023/07/01 06:28:00;;;;;;;10.97;8.20;;;16.70;99.90;;;;;;5032389;28;20119;-74
2023/07/01 06:30:26;;;;;;;8.33;6.77;;;16.70;99.90;;;;;;5032352;28;20050;-75
2023/07/01 06:32:52;;;;;;;9.07;7.00;;;16.70;99.90;;;;;;5016174;28;20167;-75
2023/07/01 06:35:18;;;;;;;8.77;6.63;;;16.80;99.90;;;;;;5032159;28;20054;-75
2023/07/01 06:37:44;;;;;;;8.53;6.77;;;16.80;99.90;;;;;;5033298;28;20160;-74
2023/07/01 06:40:12;;;;;;;7.27;6.03;;;16.80;99.90;;;;;;5032076;28;20136;-74
2023/07/01 06:42:38;;;;;;;9.53;6.00;;;16.80;99.90;;;;;;5015633;28;20514;-75
2023/07/01 06:45:04;;;;;;;8.97;6.77;;;16.90;99.90;;;;;;5031973;28;20052;-73
2023/07/01 06:47:30;;;;;;;6.93;5.93;;;16.90;99.90;;;;;;5031610;28;20181;-73
2023/07/01 06:49:55;;;;;;;7.20;5.63;;;16.90;99.90;;;;;;5032861;28;20049;-74
2023/07/01 06:52:21;;;;;;;7.93;5.07;;;16.90;99.90;;;;;;5031744;28;20049;-74
2023/07/01 06:54:47;;;;;;;7.97;5.17;;;17.00;99.90;;;;;;5032886;28;20099;-74
2023/07/01 06:57:12;;;;;;;8.23;5.50;;;17.00;99.90;;;;;;5015782;28;20053;-76
2023/07/01 06:59:38;;;;;;;7.50;5.70;;;17.10;99.90;;;;;;5032854;28;20052;-74
2023/07/01 07:02:04;;;;;;;6.57;5.27;;;17.00;99.90;;;;;;5031783;28;20564;-74
2023/07/01 07:04:30;;;;;;;7.83;5.70;;;17.00;99.90;;;;;;5032118;28;20080;-74
2023/07/01 07:06:55;;;;;;;5.97;4.77;;;17.10;99.90;;;;;;5032531;28;20045;-74
2023/07/01 07:09:22;;;;;;;5.90;4.60;;;17.10;99.90;;;;;;5031867;28;20119;-76
2023/07/01 07:11:48;;;;;;;5.90;4.60;;;17.20;99.90;;;;;;5032969;28;20065;-74
2023/07/01 07:14:14;;;;;;;5.17;4.20;;;17.20;99.90;;;;;;5033086;28;20567;-75
2023/07/01 07:16:48;;;;;;;5.53;4.43;;;17.20;99.90;;;;;;5030710;28;20049;-73
2023/07/01 07:19:14;;;;;;;6.30;4.45;;;17.20;99.90;;;;;;5032769;28;20049;-74
2023/07/01 07:21:40;;;;;;;5.97;4.47;;;17.20;99.90;;;;;;5030810;28;20493;-74
2023/07/01 07:24:06;;;;;;;5.90;4.47;;;17.20;99.90;;;;;;5032981;28;20053;-74
2023/07/01 07:26:33;;;;;;;5.27;4.03;;;17.30;99.90;;;;;;5032537;28;20049;-74
2023/07/01 07:28:59;;;;;;;6.00;4.43;;;17.30;99.90;;;;;;5032968;28;20053;-72
2023/07/01 07:31:24;;;;;;;5.97;4.73;;;17.30;99.90;;;;;;5032403;28;20545;-75
2023/07/01 07:33:50;;;;;;;5.17;4.30;;;17.30;99.90;;;;;;5033019;28;20041;-71
2023/07/01 07:36:16;;;;;;;5.27;4.20;;;17.30;99.90;;;;;;5032933;28;20504;-72
2023/07/01 07:38:42;;;;;;;4.80;3.60;;;17.30;99.90;;;;;;5032481;28;20066;-73
2023/07/01 07:41:07;;;;;;;4.30;3.30;;;17.30;99.90;;;;;;5031666;28;20056;-71
2023/07/01 07:43:33;;;;;;;4.57;3.43;;;17.30;99.90;;;;;;5032068;28;20401;-71
2023/07/01 07:45:58;;;;;;;5.27;3.80;;;17.40;99.90;;;;;;5032239;28;20112;-73
2023/07/01 07:48:24;;;;;;;4.20;3.40;;;17.40;99.90;;;;;;5032075;28;20052;-73
2023/07/01 07:50:50;;;;;;;4.60;3.57;;;17.40;99.90;;;;;;5030931;28;20041;-72
2023/07/01 07:53:16;;;;;;;4.40;3.27;;;17.40;99.90;;;;;;5029724;28;20049;-73
2023/07/01 07:55:42;;;;;;;5.40;3.90;;;17.40;99.90;;;;;;5028247;28;20107;-73
2023/07/01 07:58:09;;;;;;;5.70;3.60;;;17.50;99.90;;;;;;5031184;28;20053;-73
2023/07/01 08:00:35;;;;;;;5.10;3.43;;;17.50;99.90;;;;;;5030945;28;20049;-72
2023/07/01 08:03:01;;;;;;;4.47;3.30;;;17.50;99.90;;;;;;5031252;28;20398;-73
2023/07/01 08:05:27;;;;;;;4.63;3.10;;;17.60;99.90;;;;;;5030476;28;20042;-72
2023/07/01 08:07:53;;;;;;;4.77;3.30;;;17.60;99.90;;;;;;5031553;28;20119;-72
2023/07/01 08:10:19;;;;;;;6.10;3.30;;;17.60;99.90;;;;;;5032496;28;20084;-72
2023/07/01 08:12:45;;;;;;;3.83;2.80;;;17.60;99.90;;;;;;5032191;28;20062;-72
2023/07/01 08:15:11;;;;;;;3.77;2.73;;;17.70;99.90;;;;;;5032488;28;20132;-72
2023/07/01 08:17:36;;;;;;;4.70;2.63;;;17.70;99.90;;;;;;5032307;28;20567;-72
2023/07/01 08:20:04;;;;;;;3.93;2.77;;;17.70;99.90;;;;;;5032802;28;20046;-72
2023/07/01 08:22:30;;;;;;;3.73;2.70;;;17.70;99.90;;;;;;5032472;28;20049;-76
2023/07/01 08:24:57;;;;;;;4.10;2.87;;;17.70;99.90;;;;;;5032549;28;20041;-72
2023/07/01 08:27:23;;;;;;;3.70;2.43;;;17.70;99.90;;;;;;5032253;28;20081;-72
2023/07/01 08:29:48;;;;;;;4.83;2.57;;;17.80;99.90;;;;;;5035141;28;20151;-72
2023/07/01 08:32:14;;;;;;;3.37;2.33;;;17.80;99.90;;;;;;5036467;28;20052;-72
2023/07/01 08:34:40;;;;;;;3.97;2.10;;;17.80;99.90;;;;;;5036146;28;20049;-72
2023/07/01 08:37:06;;;;;;;3.03;2.17;;;17.90;99.90;;;;;;5035122;28;20143;-72
2023/07/01 08:39:31;;;;;;;3.30;2.00;;;17.90;99.90;;;;;;5034892;28;20518;-74
2023/07/01 08:42:02;;;;;;;2.77;1.83;;;17.90;99.90;;;;;;5035985;28;20052;-72
2023/07/01 08:44:29;;;;;;;3.93;2.00;;;18.00;99.90;;;;;;5036067;28;20626;-72
2023/07/01 08:46:55;;;;;;;2.57;1.30;;;18.00;99.90;;;;;;5034642;28;20041;-72
2023/07/01 08:49:22;;;;;;;2.03;1.20;;;18.00;99.90;;;;;;5036014;28;20041;-72
2023/07/01 08:51:51;;;;;;;1.67;1.20;;;18.00;99.90;;;;;;5034676;28;20045;-72
2023/07/01 08:54:18;;;;;;;2.13;1.10;;;18.00;99.90;;;;;;5035912;28;20052;-72
2023/07/01 08:56:48;;;;;;;1.90;1.07;;;18.00;99.90;;;;;;5035608;28;20044;-72
2023/07/01 08:59:14;;;;;;;2.53;1.40;;;18.00;99.90;;;;;;5035671;28;20052;-71
2023/07/01 09:01:42;;;;;;;2.03;1.20;;;18.00;99.90;;;;;;5034413;28;20049;-72
2023/07/01 09:04:08;;;;;;;0.60;0.60;;;18.10;99.90;;;;;;5035701;28;20460;-72
2023/07/01 09:06:34;;;;;;;1.87;0.80;;;18.10;99.90;;;;;;5035304;28;20091;-75
2023/07/01 09:09:02;;;;;;;1.00;0.90;;;18.10;99.90;;;;;;5035462;28;20089;-72
2023/07/01 09:11:28;;;;;;;1.97;1.20;;;18.20;99.90;;;;;;5035406;28;20041;-72
2023/07/01 09:13:56;;;;;;;4.10;1.20;;;18.20;99.90;;;;;;5031385;28;20061;-72
2023/07/01 09:16:32;;;;;;;3.07;1.47;;;18.30;99.90;;;;;;5035747;28;20057;-72
2023/07/01 09:19:10;;;;;;;3.70;1.70;;;18.30;99.90;;;;;;5035308;28;20088;-72
2023/07/01 09:21:37;;;;;;;4.60;2.17;;;18.30;99.90;;;;;;5035327;28;20045;-73
2023/07/01 09:24:06;;;;;;;5.40;2.33;;;18.40;99.90;;;;;;5034281;28;20077;-72
2023/07/01 09:26:33;;;;;;;5.13;2.00;;;18.50;99.90;;;;;;5035361;28;20508;-72
2023/07/01 09:29:06;;;;;;;5.60;2.10;;;18.40;99.90;;;;;;5035104;28;20041;-72
2023/07/01 09:31:47;;;;;;;3.33;2.00;;;18.40;99.90;;;;;;5035367;28;20128;-71
2023/07/01 09:34:13;;;;;;;3.87;2.10;;;18.40;99.90;;;;;;5017758;28;20456;-71
2023/07/01 09:36:39;;;;;;;3.73;2.13;;;18.40;99.90;;;;;;5034671;28;20124;-72
2023/07/01 09:39:05;;;;;;;3.77;2.40;;;18.30;99.90;;;;;;5034289;28;20485;-72
2023/07/01 09:41:31;;;;;;;3.87;2.13;;;18.30;99.90;;;;;;5035084;28;20099;-72
2023/07/01 09:43:58;;;;;;;4.30;2.80;;;18.40;99.90;;;;;;5034653;28;20132;-71
2023/07/01 09:46:38;;;;;;;4.10;2.87;;;18.40;99.90;;;;;;5033595;28;20136;-71
2023/07/01 09:49:04;;;;;;;4.23;2.50;;;18.50;99.90;;;;;;5033865;28;20132;-72
2023/07/01 09:51:30;;;;;;;4.43;2.90;;;18.60;99.90;;;;;;5033765;28;20148;-71
2023/07/01 09:53:56;;;;;;;5.27;3.40;;;18.60;99.90;;;;;;5034577;28;20098;-72
2023/07/01 09:56:21;;;;;;;4.97;3.63;;;18.80;99.90;;;;;;5033760;28;20486;-72
2023/07/01 09:58:49;;;;;;;5.50;3.70;;;18.80;99.90;;;;;;5033414;28;20052;-72
2023/07/01 10:01:17;;;;;;;6.60;4.40;;;19.00;99.90;;;;;;5034940;28;20401;-72
2023/07/01 10:03:43;;;;;;;5.83;4.00;;;19.20;99.90;;;;;;5033178;28;20056;-73
2023/07/01 10:06:10;;;;;;;7.20;4.20;;;19.40;99.90;;;;;;5034533;28;20052;-72
2023/07/01 10:08:36;;;;;;;7.00;4.27;;;19.40;99.90;;;;;;5034744;28;20045;-72
2023/07/01 10:11:14;;;;;;;6.67;4.00;;;19.60;99.90;;;;;;5033399;28;20049;-72
2023/07/01 10:13:47;;;;;;;6.10;4.47;;;19.50;99.90;;;;;;5034528;28;20216;-73
2023/07/01 10:16:13;;;;;;;5.27;4.60;;;19.40;99.90;;;;;;5034258;28;20061;-71
2023/07/01 10:18:39;;;;;;;6.83;4.13;;;19.30;99.90;;;;;;5033344;28;20045;-71
2023/07/01 10:21:23;;;;;;;5.93;3.43;;;19.20;99.90;;;;;;5032864;28;20103;-70
2023/07/01 10:23:50;;;;;;;4.83;3.40;;;19.10;99.90;;;;;;5033877;28;20049;-70
2023/07/01 10:26:47;;;;;;;5.23;3.33;;;19.00;99.90;;;;;;5032785;28;20049;-70
2023/07/01 10:29:28;;;;;;;5.70;3.40;;;18.90;99.90;;;;;;5013963;28;20065;-70
2023/07/01 10:32:09;;;;;;;7.03;2.93;;;19.00;99.90;;;;;;5033896;28;20175;-71
2023/07/01 10:34:55;;;;;;;6.23;3.50;;;18.90;99.90;;;;;;5033094;28;20187;-71
2023/07/01 10:37:22;;;;;;;5.33;3.27;;;19.00;99.90;;;;;;5016702;28;20129;-71
2023/07/01 10:39:49;;;;;;;4.77;3.47;;;19.10;99.90;;;;;;5016329;28;20049;-71
2023/07/01 10:42:31;;;;;;;7.50;3.20;;;19.20;99.90;;;;;;5032868;28;20056;-71
2023/07/01 10:45:11;;;;;;;5.57;3.23;;;19.20;99.90;;;;;;5033526;28;20049;-71
2023/07/01 10:47:44;;;;;;;5.83;3.90;;;19.30;99.90;;;;;;5033537;28;20520;-73
2023/07/01 10:50:15;;;;;;;5.67;3.97;;;19.20;99.90;;;;;;5032304;28;20406;-73
2023/07/01 10:52:56;;;;;;;5.67;4.10;;;19.20;99.90;;;;;;5033780;28;20045;-73
2023/07/01 10:55:38;;;;;;;7.87;4.87;;;19.30;99.90;;;;;;5033503;28;20045;-71
2023/07/01 10:58:21;;;;;;;6.83;5.53;;;19.40;99.90;;;;;;5033136;28;20045;-71
2023/07/01 11:00:48;;;;;;;6.80;5.90;;;19.50;99.90;;;;;;5033532;28;20122;-73
2023/07/01 11:03:33;;;;;;;8.37;6.20;;;19.60;99.90;;;;;;5016118;28;20056;-71
2023/07/01 11:06:10;;;;;;;7.77;6.17;;;19.60;99.90;;;;;;5033078;28;20488;-71
2023/07/01 11:08:47;;;;;;;6.70;6.00;;;19.60;99.90;;;;;;5016006;28;20056;-71
2023/07/01 11:11:22;;;;;;;8.07;6.13;;;19.60;99.90;;;;;;5033395;28;20045;-71
2023/07/01 11:14:14;;;;;;;9.40;6.37;;;19.50;99.90;;;;;;5033132;28;20061;-74
2023/07/01 11:16:40;;;;;;;7.83;6.20;;;19.40;99.90;;;;;;5028382;28;20057;-71
2023/07/01 11:19:09;;;;;;;9.77;6.17;;;19.30;99.90;;;;;;5032004;28;20496;-71
2023/07/01 11:21:35;;;;;;;8.37;5.70;;;19.20;99.90;;;;;;5032236;28;20106;-71
2023/07/01 11:24:06;;;;;;;8.23;5.50;;;19.20;99.90;;;;;;5015500;28;20129;-71
2023/07/01 11:26:36;;;;;;;9.90;6.47;;;19.10;99.90;;;;;;5032958;28;20045;-71
2023/07/01 11:29:08;;;;;;;9.20;6.00;;;19.20;99.90;;;;;;5032796;28;20049;-71
2023/07/01 11:31:36;;;;;;;9.77;6.27;;;19.20;99.90;;;;;;5031779;28;20050;-71
2023/07/01 11:34:02;;;;;;;9.40;6.63;;;19.30;99.90;;;;;;5031941;28;20092;-71
2023/07/01 11:36:44;;;;;;;8.23;6.70;;;19.50;99.90;;;;;;5032063;28;20063;-70
2023/07/01 11:39:15;;;;;;;10.23;6.90;;;19.70;99.90;;;;;;5032840;28;20049;-71
2023/07/01 11:42:02;;;;;;;8.03;6.17;;;19.80;99.90;;;;;;5031712;28;20079;-71
2023/07/01 11:44:29;;;;;;;9.37;5.90;;;19.90;99.90;;;;;;5033243;28;20128;-71
2023/07/01 11:46:55;;;;;;;8.87;6.20;;;19.80;99.90;;;;;;5032687;28;20604;-71
2023/07/01 11:49:21;;;;;;;8.00;4.40;;;19.70;99.90;;;;;;5032591;28;20050;-71
2023/07/01 11:51:49;;;;;;;11.93;4.43;;;19.60;99.90;;;;;;5032720;28;20060;-70
2023/07/01 11:54:18;;;;;;;10.10;4.60;;;19.60;99.90;;;;;;4998871;28;20130;-70
2023/07/01 11:56:44;;;;;;;6.80;4.30;;;19.70;99.90;;;;;;5032886;28;20049;-70
2023/07/01 11:59:10;;;;;;;6.83;4.33;;;19.80;99.90;;;;;;5032494;28;20505;-71
2023/07/01 12:01:40;;;;;;;10.03;5.03;;;19.90;99.90;;;;;;5015280;28;20053;-70
2023/07/01 12:04:16;;;;;;;8.20;4.10;;;19.90;99.90;;;;;;5035433;28;20045;-70
2023/07/01 12:06:42;;;;;;;7.23;3.00;;;19.80;99.90;;;;;;5036567;28;20099;-70
2023/07/01 12:09:08;;;;;;;8.57;3.50;;;19.70;99.90;;;;;;5035635;28;20058;-71
2023/07/01 12:11:45;;;;;;;6.80;3.33;;;19.70;99.90;;;;;;5019073;28;20111;-71
2023/07/01 12:14:18;;;;;;;6.20;3.50;;;19.70;99.90;;;;;;5035002;28;20064;-70
2023/07/01 12:16:47;;;;;;;8.13;3.50;;;19.80;99.90;;;;;;5035286;28;20486;-71
2023/07/01 12:19:14;;;;;;;5.53;3.50;;;19.80;99.90;;;;;;5036202;28;20516;-71
2023/07/01 12:21:40;;;;;;;7.50;4.20;;;19.80;99.90;;;;;;5035353;28;20056;-71
2023/07/01 12:24:25;;;;;;;6.77;3.60;;;19.80;99.90;;;;;;5018792;28;20132;-71
2023/07/01 12:26:55;;;;;;;6.43;3.28;;;19.90;99.90;;;;;;5036361;28;20128;-71
2023/07/01 12:29:22;;;;;;;5.40;3.40;;;20.00;99.90;;;;;;5036250;28;20049;-71
2023/07/01 12:31:49;;;;;;;6.47;3.70;;;20.00;99.90;;;;;;5036132;28;20045;-71
2023/07/01 12:34:15;;;;;;;5.50;3.57;;;19.90;99.90;;;;;;5035152;28;20118;-71
2023/07/01 12:36:45;;;;;;;4.33;3.33;;;19.80;99.90;;;;;;5035498;28;20393;-71
2023/07/01 12:39:10;;;;;;;5.20;2.90;;;19.70;99.90;;;;;;5034932;28;20049;-71
2023/07/01 12:41:36;;;;;;;5.33;2.90;;;19.60;99.90;;;;;;5034852;28;20037;-71
2023/07/01 12:44:04;;;;;;;4.33;2.70;;;19.50;99.90;;;;;;5035788;28;20056;-72
2023/07/01 12:46:31;;;;;;;5.70;2.80;;;19.50;99.90;;;;;;5035823;28;20046;-71
2023/07/01 12:48:56;;;;;;;6.80;2.90;;;19.50;99.90;;;;;;5035892;28;20515;-71